Findlay Airport
KFDY : now visible

Airfield :











YOU CAN JOIN US ON...

 
LOGIN :

Register | Disclaimer

   EN    FR    IT 

 









Legend :    VFR   Marginal VFR   IFR   Intensive IFR   Very Intensive IFR
Visi :
Ceiling :
>= 8 km
>= 3000ft
5 to 8 km
1000 to 3000 ft
1500m to 5 km
500 to 1000 ft
800 to 1500m
200 to 500 ft
< 800m
< 200 ft
Symbols :   Thunderstorms  Fog  Heavy snow  Heavy precipitations  Wind > 20 kt






- Airport Elevation : 813 ft


KFDY - Findlay

CURRENT METAR :
  • 281732Z AUTO 16009KT 10SM SCT020 BKN034 OVC060 24/19 A2992 RMK AO2 T02390194

EXPIRED METARs :
  • 281653Z AUTO 19010KT 10SM BKN021 OVC028 23/18 A2993 RMK AO2 SLP126 T02330183
  • 281553Z AUTO 18011KT 10SM BKN017 OVC025 23/19 A2994 RMK AO2 SLP129 T02280189

TAF KFDY
Valid from the 28 at 18:00 until the 29 at 18:00 UTC


281751Z 2818/2918 19010KT P6SM VCSH SCT018 OVC035
TEMPO 2820/2822 -SHRA BKN018
FM282300 21008KT P6SM SCT035
FM291200 23007KT P6SM VCSH SCT015 OVC025
FM291500 27006KT 4SM -SHRA BR SCT008 OVC015
PROB30 2915/2917 2SM -TSRA BR OVC008CB
KZOB FIR / North America



MET'MAP, your aeronautical weather chart ! - Copyright ORBIFLY December 2007 - Disclaimer

ORBIFLY MET'MAP TEAM :

Programming & Development : Alexandra Zaïnal
Concept & original design : Baudouin d'Aumeries
Assistance for programming : Marc-Olivier Méhu
Technical & hardware support : Manuel Goepfert

Contact : metmap@orbifly.com




SOURCES & CREDITS :

   NOAA       Earth
Advisory